Time;durP1;ratioP1;P1;durP2;ratioP2;P2;SDS_P1;SDS_P2;PMS_P1;PMS_P2;Temp;Humidity;BMP_temperature;BMP_pressure;BME280_temperature;BME280_humidity;BME280_pressure;Samples;Min_cycle;Max_cycle;Signal;HPM_P1;HPM_P2
2022/01/25 00:26:30;;;;;;;15.82;7.65;;;;;;;2.03;69.62;98688.13;4963293;28;20187;-87
2022/01/25 00:29:27;;;;;;;13.65;6.40;;;;;;;2.04;69.27;98685.41;4934321;28;20220;-87
2022/01/25 00:31:43;;;;;;;13.30;6.72;;;;;;;2.02;69.59;98679.63;4972768;28;20157;-87
2022/01/25 00:34:09;;;;;;;17.58;8.82;;;;;;;2.00;69.64;98666.09;4973405;28;20110;-87
2022/01/25 00:36:35;;;;;;;20.70;9.05;;;;;;;2.06;70.25;98680.94;4940260;28;20200;-87
2022/01/25 00:39:01;;;;;;;15.63;8.20;;;;;;;2.10;70.11;98685.75;4925753;28;20583;-87
2022/01/25 00:41:27;;;;;;;15.07;7.88;;;;;;;2.11;69.61;98684.78;4940559;28;20183;-87
2022/01/25 00:43:53;;;;;;;16.50;8.05;;;;;;;2.08;69.50;98678.22;4971315;28;20179;-87
2022/01/25 00:46:21;;;;;;;19.42;8.10;;;;;;;2.01;69.56;98685.72;4956627;28;20267;-87
2022/01/25 00:48:50;;;;;;;18.70;8.95;;;;;;;1.91;70.12;98669.59;4955019;28;20712;-87
2022/01/25 00:54:14;;;;;;;16.65;9.60;;;;;;;1.84;70.22;98684.00;4957680;28;20196;-87
2022/01/25 00:56:44;;;;;;;17.13;8.23;;;;;;;1.89;70.56;98675.84;4953686;28;20321;-87
2022/01/25 00:59:11;;;;;;;18.88;9.40;;;;;;;1.93;70.92;98677.97;4941487;28;20217;-87
2022/01/25 01:01:37;;;;;;;25.48;11.02;;;;;;;1.94;71.02;98678.78;4933705;28;20209;-87
2022/01/25 01:04:05;;;;;;;28.48;11.18;;;;;;;1.94;70.94;98674.44;4940543;28;20919;-87
2022/01/25 01:06:31;;;;;;;24.50;10.45;;;;;;;1.99;70.93;98679.13;4944630;28;20249;-87
2022/01/25 01:08:56;;;;;;;24.73;8.88;;;;;;;1.94;70.47;98678.78;4927798;28;20221;-87
2022/01/25 01:11:30;;;;;;;19.30;8.27;;;;;;;1.84;70.30;98671.16;4949676;28;20287;-87
2022/01/25 01:14:12;;;;;;;20.27;8.65;;;;;;;1.87;69.98;98665.75;4934509;28;20076;-87
2022/01/25 01:31:00;;;;;;;16.25;7.63;;;;;;;1.36;69.96;98711.72;4967751;28;20820;-87
2022/01/25 01:41:21;;;;;;;22.20;11.38;;;;;;;1.38;70.96;98704.69;4951995;28;20146;-86
2022/01/25 01:43:53;;;;;;;26.40;11.13;;;;;;;1.44;71.13;98708.41;4936462;28;20215;-86
2022/01/25 01:46:35;;;;;;;19.55;9.48;;;;;;;1.44;70.86;98703.28;4941095;28;20197;-87
2022/01/25 01:49:02;;;;;;;19.20;10.00;;;;;;;1.48;70.96;98702.03;4923505;28;20346;-87
2022/01/25 01:51:36;;;;;;;21.05;10.30;;;;;;;1.51;70.70;98704.31;4936370;28;20353;-87
2022/01/25 01:54:09;;;;;;;23.02;9.70;;;;;;;1.44;70.80;98701.53;4936592;28;20169;-87
2022/01/25 01:56:36;;;;;;;21.10;9.63;;;;;;;1.57;71.24;98706.28;4927186;28;20206;-88
2022/01/25 01:59:04;;;;;;;20.65;9.48;;;;;;;1.58;70.80;98714.81;4954088;28;20102;-87
2022/01/25 02:01:30;;;;;;;19.52;9.27;;;;;;;1.69;70.76;98715.34;4918135;28;20268;-88
2022/01/25 02:03:57;;;;;;;17.45;8.43;;;;;;;1.67;70.57;98708.75;4936327;28;20259;-88
2022/01/25 02:06:23;;;;;;;22.00;10.32;;;;;;;1.65;70.94;98706.34;4950370;28;20306;-88
2022/01/25 02:08:48;;;;;;;22.63;12.20;;;;;;;1.74;71.06;98709.78;4952340;28;20719;-88
2022/01/25 02:11:14;;;;;;;19.35;10.48;;;;;;;1.73;70.76;98710.75;4918136;28;20298;-88
2022/01/25 02:13:41;;;;;;;15.15;8.57;;;;;;;1.77;70.58;98703.56;4937445;28;20435;-88
2022/01/25 02:16:14;;;;;;;20.17;9.60;;;;;;;1.72;69.96;98701.41;4951251;28;20271;-88
2022/01/25 02:24:08;;;;;;;29.45;9.88;;;;;;;1.66;71.01;98697.69;4962702;28;20251;-87
2022/01/25 02:26:33;;;;;;;25.92;10.77;;;;;;;1.64;71.08;98689.31;4937205;28;20746;-88
2022/01/25 02:28:59;;;;;;;31.92;11.43;;;;;;;1.68;71.07;98687.28;4938255;28;20297;-88
2022/01/25 02:31:25;;;;;;;42.63;12.07;;;;;;;1.75;71.28;98695.16;4919683;28;20632;-88
2022/01/25 02:33:50;;;;;;;27.63;10.82;;;;;;;1.73;71.26;98686.81;4933548;28;20318;-88
2022/01/25 02:36:25;;;;;;;32.05;11.32;;;;;;;1.67;71.03;98683.09;4934027;28;20227;-88
2022/01/25 02:38:51;;;;;;;23.15;10.07;;;;;;;1.78;71.65;98679.47;4915756;28;20266;-88
2022/01/25 02:41:16;;;;;;;24.33;10.05;;;;;;;1.83;71.35;98680.66;4919927;28;20291;-88
2022/01/25 02:43:42;;;;;;;25.58;10.57;;;;;;;1.84;70.81;98684.00;4948695;28;20234;-88
2022/01/25 02:48:49;;;;;;;25.88;9.10;;;;;;;1.65;71.12;98675.53;4950389;28;20196;-87
2022/01/25 02:51:15;;;;;;;47.00;11.00;;;;;;;1.75;71.34;98664.34;4952034;28;20196;-88
2022/01/25 02:53:40;;;;;;;50.63;9.55;;;;;;;1.74;71.25;98673.81;4917101;28;20212;-89
2022/01/25 02:56:06;;;;;;;84.25;11.30;;;;;;;1.62;71.30;98660.44;4949781;28;20259;-88
2022/01/25 02:58:31;;;;;;;51.40;8.85;;;;;;;1.74;71.08;98680.72;4952154;28;20344;-89
2022/01/25 03:00:56;;;;;;;19.75;8.25;;;;;;;1.74;71.34;98675.59;4933621;28;20197;-88
2022/01/25 03:03:22;;;;;;;46.15;9.23;;;;;;;1.72;71.45;98686.00;4935870;28;20814;-88
2022/01/25 03:05:47;;;;;;;32.80;7.38;;;;;;;1.64;71.34;98680.81;4962537;28;20193;-88
2022/01/25 03:08:14;;;;;;;23.90;6.95;;;;;;;1.57;71.51;98678.03;4936067;28;20170;-88
2022/01/25 03:10:42;;;;;;;117.88;11.68;;;;;;;1.56;71.66;98691.00;4951880;28;20219;-88
2022/01/25 03:13:13;;;;;;;62.90;9.85;;;;;;;1.56;71.51;98684.16;4935060;28;20294;-88
2022/01/25 03:15:57;;;;;;;52.65;9.85;;;;;;;1.49;71.83;98680.53;4919988;28;20650;-88
2022/01/25 03:18:47;;;;;;;66.35;9.55;;;;;;;1.43;71.86;98681.16;4933485;28;20290;-88
2022/01/25 03:23:55;;;;;;;35.60;9.00;;;;;;;1.44;71.36;98678.44;4965754;28;20284;-88
2022/01/25 03:26:23;;;;;;;13.85;6.45;;;;;;;1.48;71.16;98678.94;4921131;28;20714;-88
2022/01/25 03:28:53;;;;;;;17.38;6.65;;;;;;;1.44;71.13;98672.47;4944985;28;20196;-88
2022/01/25 03:31:18;;;;;;;13.30;6.50;;;;;;;1.41;71.05;98667.66;4954112;28;20707;-88
2022/01/25 03:33:45;;;;;;;16.27;6.15;;;;;;;1.40;70.73;98660.91;4914375;28;20292;-88
2022/01/25 03:36:11;;;;;;;23.27;6.65;;;;;;;1.38;71.32;98660.25;4930779;28;20187;-88
2022/01/25 03:38:37;;;;;;;21.30;5.75;;;;;;;1.27;70.91;98659.53;4930665;28;20243;-88
2022/01/25 03:41:08;;;;;;;25.75;6.53;;;;;;;1.19;71.21;98672.28;4931018;28;20347;-88
2022/01/25 03:43:35;;;;;;;77.32;9.82;;;;;;;1.19;71.36;98669.72;4944378;28;20274;-88
2022/01/25 03:51:43;;;;;;;34.17;7.30;;;;;;;1.19;71.74;98666.34;4936128;28;20367;-87
2022/01/25 03:54:09;;;;;;;28.77;7.95;;;;;;;1.16;71.48;98667.44;4932448;28;20237;-88
2022/01/25 03:56:38;;;;;;;19.17;7.45;;;;;;;1.15;71.73;98668.41;4954714;28;20701;-88
2022/01/25 03:59:05;;;;;;;31.13;8.02;;;;;;;1.16;71.48;98664.06;4937566;28;20194;-88
2022/01/25 04:01:32;;;;;;;16.33;6.95;;;;;;;1.18;71.66;98668.09;4918016;28;20209;-87
2022/01/25 04:04:03;;;;;;;25.30;8.40;;;;;;;1.17;71.64;98665.69;4936988;28;20213;-87
2022/01/25 04:06:32;;;;;;;21.92;7.57;;;;;;;1.16;71.65;98658.94;4947956;28;20650;-88
2022/01/25 04:08:59;;;;;;;19.98;8.27;;;;;;;1.18;71.79;98668.09;4938179;28;20264;-87
2022/01/25 04:11:25;;;;;;;25.48;7.72;;;;;;;1.19;72.05;98671.50;4954631;28;20764;-87
2022/01/25 04:13:53;;;;;;;78.07;11.02;;;;;;;1.17;71.40;98674.19;4954345;28;20383;-88
2022/01/25 04:16:23;;;;;;;45.67;9.63;;;;;;;1.14;71.78;98671.91;4933847;28;20173;-88
2022/01/25 04:26:39;;;;;;;35.00;10.30;;;;;;;1.17;71.80;98671.63;4964723;28;20181;-88
2022/01/25 04:29:04;;;;;;;46.72;10.30;;;;;;;1.09;71.60;98668.97;4950130;28;20290;-87
2022/01/25 04:31:30;;;;;;;53.03;9.45;;;;;;;1.06;71.73;98669.28;4930403;28;20257;-88
2022/01/25 04:50:27;;;;;;;30.75;7.50;;;;;;;0.84;72.03;98648.25;4962938;28;20174;-87
2022/01/25 04:53:04;;;;;;;38.22;8.13;;;;;;;0.85;72.14;98649.03;4935153;28;20549;-88
2022/01/25 04:55:40;;;;;;;24.02;8.43;;;;;;;0.90;72.19;98657.09;4920239;28;20283;-87
2022/01/25 04:58:13;;;;;;;18.20;7.20;;;;;;;0.98;71.63;98646.09;4941476;28;20199;-88
2022/01/25 05:00:38;;;;;;;20.40;7.30;;;;;;;1.03;71.71;98643.91;4948814;28;20216;-88
2022/01/25 05:03:10;;;;;;;16.48;6.20;;;;;;;1.12;71.31;98651.53;4934817;28;20201;-87
2022/01/25 05:05:42;;;;;;;21.67;6.90;;;;;;;1.04;71.42;98637.84;4935835;28;20442;-88
2022/01/25 05:10:45;;;;;;;67.20;8.90;;;;;;;1.01;71.27;98656.06;4952088;28;20282;-88
2022/01/25 05:13:34;;;;;;;64.53;8.15;;;;;;;0.85;71.72;98644.72;4950769;28;20180;-87
2022/01/25 05:16:06;;;;;;;41.88;6.88;;;;;;;0.86;71.75;98659.16;4968063;28;20203;-87
2022/01/25 05:18:42;;;;;;;42.42;7.68;;;;;;;0.92;72.02;98656.00;4951990;28;20212;-87
2022/01/25 05:23:52;;;;;;;33.15;5.97;;;;;;;0.95;71.95;98662.59;4951850;28;20150;-88
2022/01/25 05:26:18;;;;;;;24.75;6.60;;;;;;;0.89;70.98;98653.75;4921925;28;20203;-87
2022/01/25 05:28:43;;;;;;;27.45;6.68;;;;;;;0.90;71.46;98657.91;4947995;28;20282;-87
2022/01/25 05:31:09;;;;;;;21.25;5.72;;;;;;;0.84;71.73;98657.69;4951586;28;20150;-87
2022/01/25 05:33:34;;;;;;;27.52;7.65;;;;;;;0.84;71.91;98653.38;4932131;28;20205;-87
2022/01/25 05:35:59;;;;;;;27.05;9.00;;;;;;;0.89;71.96;98652.91;4933573;28;20221;-87
2022/01/25 05:38:25;;;;;;;18.90;7.55;;;;;;;0.96;71.25;98658.28;4935391;28;20209;-87
2022/01/25 05:41:00;;;;;;;24.85;7.30;;;;;;;0.95;71.57;98654.13;4935542;28;20187;-87
2022/01/25 05:46:11;;;;;;;19.30;7.55;;;;;;;0.98;71.13;98646.09;4954072;28;20188;-87
2022/01/25 05:48:37;;;;;;;18.77;6.95;;;;;;;0.98;70.92;98662.31;4934590;28;20111;-88
2022/01/25 05:51:02;;;;;;;17.85;7.57;;;;;;;0.87;71.02;98645.38;4960475;28;20290;-88
2022/01/25 05:53:27;;;;;;;18.52;6.93;;;;;;;0.86;71.04;98656.59;4935373;28;20205;-86
2022/01/25 05:55:53;;;;;;;20.30;6.78;;;;;;;0.88;70.97;98659.81;4950549;28;20647;-86
2022/01/25 05:58:19;;;;;;;17.88;7.32;;;;;;;0.88;71.09;98653.88;4956287;28;20279;-87
2022/01/25 06:00:44;;;;;;;17.83;7.13;;;;;;;0.89;71.08;98661.44;4921342;28;20213;-86
2022/01/25 06:03:10;;;;;;;19.13;7.05;;;;;;;0.86;71.40;98664.28;4950226;28;20200;-86
2022/01/25 06:05:36;;;;;;;25.75;11.20;;;;;;;0.87;71.17;98665.88;4934369;28;20278;-87
2022/01/25 06:08:03;;;;;;;22.95;9.32;;;;;;;0.79;71.01;98662.44;4951094;28;20711;-86
2022/01/25 06:10:28;;;;;;;19.20;8.35;;;;;;;0.85;70.87;98672.91;4962342;28;20546;-86
2022/01/25 06:12:54;;;;;;;20.10;8.45;;;;;;;0.71;71.04;98655.47;4936053;28;20243;-86
2022/01/25 06:15:20;;;;;;;19.42;7.95;;;;;;;0.89;71.49;98673.44;4936353;28;20207;-86
2022/01/25 06:17:46;;;;;;;41.63;8.60;;;;;;;0.83;71.36;98677.38;4930798;28;20173;-86
2022/01/25 06:20:12;;;;;;;29.65;9.70;;;;;;;0.78;70.74;98679.59;4934821;28;20260;-86
2022/01/25 06:22:37;;;;;;;26.67;11.65;;;;;;;0.80;71.15;98687.94;4933300;28;20646;-85
2022/01/25 06:25:04;;;;;;;21.67;8.20;;;;;;;0.79;71.10;98686.34;4912208;28;20209;-86
2022/01/25 06:27:29;;;;;;;52.67;9.57;;;;;;;0.64;71.43;98680.88;4946489;28;20586;-86
2022/01/25 06:29:54;;;;;;;50.33;8.43;;;;;;;0.65;71.98;98691.94;4930600;28;20210;-85
2022/01/25 06:32:20;;;;;;;70.20;10.77;;;;;;;0.56;71.39;98689.25;4950843;28;20177;-85
2022/01/25 06:34:46;;;;;;;62.78;11.13;;;;;;;0.61;72.08;98686.28;4960983;28;20267;-85
2022/01/25 06:37:13;;;;;;;49.65;15.15;;;;;;;0.66;71.42;98686.66;4951121;28;20461;-85
2022/01/25 06:39:39;;;;;;;37.88;10.20;;;;;;;0.63;71.99;98678.44;4951086;28;20200;-85
2022/01/25 06:42:05;;;;;;;27.30;8.05;;;;;;;0.65;72.29;98677.38;4933808;28;20200;-85
2022/01/25 06:44:33;;;;;;;45.17;10.65;;;;;;;0.62;72.33;98676.81;4920768;28;20272;-85
2022/01/25 06:46:58;;;;;;;43.70;8.57;;;;;;;0.71;71.96;98681.91;4949392;28;20201;-85
2022/01/25 06:49:24;;;;;;;23.67;7.82;;;;;;;0.81;71.69;98681.88;4966616;28;20655;-86
2022/01/25 06:51:49;;;;;;;64.47;10.65;;;;;;;0.69;71.89;98676.13;4932304;28;20120;-85
2022/01/25 06:54:18;;;;;;;108.60;12.95;;;;;;;0.79;71.71;98677.81;4915372;28;20346;-85
2022/01/25 06:56:43;;;;;;;34.95;8.90;;;;;;;0.87;71.92;98680.47;4934378;28;20324;-86
2022/01/25 06:59:09;;;;;;;72.43;9.65;;;;;;;0.88;71.81;98676.97;4928208;28;20170;-86
2022/01/25 07:01:34;;;;;;;25.88;7.93;;;;;;;0.93;72.05;98680.69;4931391;28;20401;-86
2022/01/25 07:04:00;;;;;;;35.63;8.32;;;;;;;0.93;71.01;98677.34;4945515;28;20157;-86
2022/01/25 07:06:25;;;;;;;142.65;14.93;;;;;;;0.75;70.94;98669.59;4932526;28;20212;-86
2022/01/25 07:08:51;;;;;;;29.48;7.93;;;;;;;0.85;71.87;98667.78;4917322;28;20643;-86
2022/01/25 07:11:17;;;;;;;18.58;6.50;;;;;;;0.92;71.51;98661.13;4966478;28;20200;-86
2022/01/25 07:13:42;;;;;;;15.18;5.82;;;;;;;0.95;71.19;98666.94;4946733;28;20275;-86
2022/01/25 07:16:07;;;;;;;30.85;6.85;;;;;;;0.84;71.55;98665.38;4913227;28;20312;-86
2022/01/25 07:18:33;;;;;;;18.95;6.40;;;;;;;0.85;71.76;98667.00;4926249;28;20203;-86
2022/01/25 07:20:58;;;;;;;18.00;6.13;;;;;;;0.90;71.12;98668.16;4966536;28;20552;-86
2022/01/25 07:23:24;;;;;;;16.13;5.53;;;;;;;0.89;70.56;98673.44;4917125;28;20212;-86
2022/01/25 07:25:49;;;;;;;66.20;8.98;;;;;;;0.72;70.88;98669.88;4916538;28;20275;-86
2022/01/25 07:28:15;;;;;;;55.85;7.18;;;;;;;0.66;71.29;98680.72;4930300;28;20633;-85
2022/01/25 07:30:40;;;;;;;30.15;6.82;;;;;;;0.51;71.60;98665.03;4973980;28;20608;-86
2022/01/25 07:33:07;;;;;;;23.67;7.57;;;;;;;0.63;72.05;98679.25;4938968;28;20254;-85
2022/01/25 07:35:36;;;;;;;22.80;6.85;;;;;;;0.69;71.75;98685.59;4922432;28;20178;-86
2022/01/25 07:38:02;;;;;;;24.30;6.78;;;;;;;0.79;72.05;98682.94;4940146;28;20302;-86
2022/01/25 07:40:28;;;;;;;14.85;5.97;;;;;;;0.89;71.21;98691.38;4929382;28;20282;-86
2022/01/25 07:42:54;;;;;;;27.58;7.97;;;;;;;0.82;71.34;98688.59;4939975;28;20642;-85
2022/01/25 07:45:20;;;;;;;19.85;7.80;;;;;;;0.86;71.80;98682.22;4941018;28;20192;-86
2022/01/25 07:47:46;;;;;;;21.48;7.13;;;;;;;0.86;71.61;98674.53;4973458;28;20283;-86
2022/01/25 07:50:11;;;;;;;31.60;8.80;;;;;;;0.94;72.01;98684.06;4955273;28;20247;-85
2022/01/25 07:52:37;;;;;;;38.17;8.43;;;;;;;0.97;71.49;98686.34;4957185;28;20192;-85
2022/01/25 07:55:04;;;;;;;23.48;6.18;;;;;;;1.06;71.48;98687.22;4940410;28;20238;-85
2022/01/25 07:57:31;;;;;;;61.13;10.50;;;;;;;1.10;71.29;98686.78;4919925;28;20217;-86
2022/01/25 07:59:58;;;;;;;44.47;8.30;;;;;;;1.09;71.06;98682.59;4933849;28;20587;-86
2022/01/25 08:02:24;;;;;;;63.97;9.50;;;;;;;1.06;71.16;98697.47;4940082;28;20169;-86
2022/01/25 08:04:49;;;;;;;59.58;9.38;;;;;;;1.09;71.33;98679.25;4924586;28;20499;-86
2022/01/25 08:07:15;;;;;;;14.45;6.20;;;;;;;1.20;71.15;98680.78;4925764;28;20256;-86
2022/01/25 08:09:40;;;;;;;169.40;15.15;;;;;;;1.17;70.83;98691.34;4923962;28;20704;-86
2022/01/25 08:12:06;;;;;;;149.60;14.20;;;;;;;1.11;70.93;98685.03;4939590;28;20169;-86
2022/01/25 08:14:32;;;;;;;22.98;6.38;;;;;;;1.21;71.50;98690.91;4923848;28;20591;-86
2022/01/25 08:16:57;;;;;;;75.93;9.45;;;;;;;1.16;70.94;98690.53;4956842;28;20113;-86
2022/01/25 08:19:22;;;;;;;21.92;7.30;;;;;;;1.21;71.14;98693.47;4936263;28;20775;-86
2022/01/25 08:21:48;;;;;;;16.77;6.20;;;;;;;1.27;70.91;98690.31;4949490;28;20212;-86
2022/01/25 08:24:18;;;;;;;19.38;7.40;;;;;;;1.33;70.85;98691.47;4920210;28;20272;-86
2022/01/25 08:26:45;;;;;;;18.90;7.47;;;;;;;1.38;70.87;98693.63;4938739;28;20183;-86
2022/01/25 08:29:10;;;;;;;17.77;7.97;;;;;;;1.39;71.42;98690.06;4949880;28;20222;-86
2022/01/25 08:31:38;;;;;;;16.75;7.90;;;;;;;1.45;70.73;98684.38;4923872;28;20697;-86
2022/01/25 08:34:04;;;;;;;19.92;7.93;;;;;;;1.55;70.85;98690.22;4957359;28;20226;-86
2022/01/25 08:36:30;;;;;;;20.30;9.10;;;;;;;1.65;70.49;98680.66;4921236;28;20700;-86
2022/01/25 08:38:55;;;;;;;18.77;8.18;;;;;;;1.78;70.13;98690.56;4921394;28;20249;-86
2022/01/25 08:41:21;;;;;;;20.20;8.05;;;;;;;1.91;69.45;98681.66;4936666;28;20708;-86
2022/01/25 08:43:47;;;;;;;19.77;8.63;;;;;;;1.97;68.69;98688.72;4950420;28;20470;-86
2022/01/25 08:46:15;;;;;;;21.23;9.48;;;;;;;1.92;68.47;98678.94;4931656;28;20192;-86
2022/01/25 08:48:41;;;;;;;17.55;7.95;;;;;;;1.90;68.34;98683.38;4968476;28;20294;-85
2022/01/25 08:51:07;;;;;;;18.35;8.30;;;;;;;1.87;68.95;98697.34;4900911;28;20287;-86
2022/01/25 08:53:33;;;;;;;19.35;7.95;;;;;;;1.81;69.51;98695.38;4934056;28;20719;-86
2022/01/25 08:55:59;;;;;;;19.00;7.25;;;;;;;1.93;69.32;98697.72;4932929;28;20197;-86
2022/01/25 08:58:24;;;;;;;15.63;7.25;;;;;;;2.01;68.30;98700.34;4940080;28;20297;-85
2022/01/25 09:00:52;;;;;;;16.23;7.10;;;;;;;1.99;68.07;98695.34;4933154;28;20268;-86
2022/01/25 09:03:18;;;;;;;17.33;7.05;;;;;;;1.94;67.83;98692.41;4962338;28;20307;-86
2022/01/25 09:05:43;;;;;;;17.30;7.30;;;;;;;1.88;67.86;98703.28;4932685;28;20189;-86
2022/01/25 09:08:10;;;;;;;15.35;6.70;;;;;;;1.96;67.57;98694.84;4951815;28;20208;-86
2022/01/25 09:10:36;;;;;;;15.05;6.95;;;;;;;1.91;67.78;98707.34;4935392;28;20185;-87
2022/01/25 09:13:02;;;;;;;13.02;6.22;;;;;;;1.87;68.13;98697.34;4951519;28;20192;-86
2022/01/25 09:15:27;;;;;;;15.77;7.28;;;;;;;1.95;68.45;98693.22;4931704;28;20693;-86
2022/01/25 09:17:53;;;;;;;14.02;6.00;;;;;;;1.93;68.40;98692.56;4934914;28;20283;-86
2022/01/25 09:20:19;;;;;;;14.52;6.93;;;;;;;1.93;68.19;98698.50;4934759;28;20256;-86
2022/01/25 09:22:47;;;;;;;12.07;5.57;;;;;;;2.01;68.42;98702.91;4934866;28;20351;-86
2022/01/25 09:25:13;;;;;;;14.70;6.32;;;;;;;2.06;68.27;98704.06;4935173;28;20365;-86
2022/01/25 09:27:39;;;;;;;14.95;6.85;;;;;;;2.12;68.46;98702.63;4944333;28;20161;-86
2022/01/25 09:30:05;;;;;;;13.65;6.53;;;;;;;2.22;68.10;98715.38;4947905;28;20174;-86
2022/01/25 09:32:30;;;;;;;14.38;7.57;;;;;;;2.21;68.58;98721.47;4934453;28;20717;-86
2022/01/25 09:34:56;;;;;;;19.00;8.25;;;;;;;2.19;69.20;98713.09;4931093;28;20313;-86
2022/01/25 09:37:21;;;;;;;17.27;8.55;;;;;;;2.34;68.59;98724.44;4967462;28;20610;-86
2022/01/25 09:39:47;;;;;;;16.33;7.18;;;;;;;2.35;68.89;98713.19;4966029;28;20204;-86
2022/01/25 09:42:12;;;;;;;17.48;7.63;;;;;;;2.32;69.20;98698.09;4933847;28;20212;-86
2022/01/25 09:44:40;;;;;;;18.27;7.35;;;;;;;2.42;68.39;98698.78;4949942;28;20768;-86
2022/01/25 09:47:06;;;;;;;15.98;7.32;;;;;;;2.66;67.92;98699.84;4950174;28;20575;-86
2022/01/25 09:49:33;;;;;;;17.67;7.20;;;;;;;2.71;67.92;98707.88;4934442;28;20690;-87
2022/01/25 09:52:01;;;;;;;20.52;7.32;;;;;;;2.71;68.27;98710.47;4922727;28;20615;-86
2022/01/25 09:54:27;;;;;;;24.73;8.07;;;;;;;2.79;67.47;98712.25;4932848;28;20664;-87
2022/01/25 09:56:52;;;;;;;51.53;8.95;;;;;;;2.84;66.92;98722.06;4927136;28;20291;-87
2022/01/25 09:59:18;;;;;;;26.73;6.60;;;;;;;2.78;67.07;98719.16;4939639;28;20210;-87
2022/01/25 10:01:43;;;;;;;16.33;6.38;;;;;;;2.66;67.42;98725.56;4933911;28;20269;-86
2022/01/25 10:04:33;;;;;;;19.23;6.88;;;;;;;2.50;67.89;98723.72;4933836;28;20188;-86
2022/01/25 10:06:58;;;;;;;24.38;7.68;;;;;;;2.72;68.39;98709.47;4915569;28;20109;-86
2022/01/25 10:09:25;;;;;;;13.52;6.18;;;;;;;2.79;68.30;98709.66;4929734;28;20203;-86
2022/01/25 10:11:50;;;;;;;14.68;6.55;;;;;;;2.89;67.95;98694.91;4943602;28;20262;-86
2022/01/25 10:14:17;;;;;;;25.75;7.40;;;;;;;2.95;68.44;98698.63;4933351;28;20195;-86
2022/01/25 10:16:44;;;;;;;24.67;7.47;;;;;;;3.03;68.23;98716.63;4914392;28;20223;-86
2022/01/25 10:19:12;;;;;;;24.67;7.60;;;;;;;3.04;67.27;98702.81;4950043;28;20295;-86
2022/01/25 10:21:42;;;;;;;21.27;7.68;;;;;;;2.98;67.84;98698.28;4916531;28;20335;-86
2022/01/25 10:24:15;;;;;;;12.35;6.45;;;;;;;2.99;67.96;98715.34;4933600;28;20181;-86
2022/01/25 10:26:48;;;;;;;17.25;7.47;;;;;;;3.14;68.00;98721.50;4948298;28;20279;-86
2022/01/25 10:29:16;;;;;;;19.00;7.75;;;;;;;3.08;68.13;98706.69;4953763;28;20296;-86
2022/01/25 10:31:44;;;;;;;20.05;7.85;;;;;;;3.11;68.67;98713.28;4931099;28;20641;-86
2022/01/25 10:34:12;;;;;;;18.30;7.95;;;;;;;3.17;68.55;98716.03;4913600;28;20676;-87
2022/01/25 10:36:45;;;;;;;26.70;9.75;;;;;;;3.11;68.92;98721.81;4948779;28;20268;-87
2022/01/25 10:39:12;;;;;;;30.08;9.77;;;;;;;3.19;68.93;98719.25;4933790;28;20191;-87
2022/01/25 10:41:40;;;;;;;31.38;9.82;;;;;;;3.08;70.13;98711.81;4948858;28;20235;-87
2022/01/25 10:44:07;;;;;;;28.73;9.23;;;;;;;3.04;69.67;98710.53;4918777;28;20195;-87
2022/01/25 10:46:35;;;;;;;21.75;9.02;;;;;;;3.08;70.20;98708.47;4933469;28;20263;-87
2022/01/25 10:49:07;;;;;;;19.40;8.15;;;;;;;3.30;69.86;98722.50;4927671;28;20247;-87
2022/01/25 10:51:42;;;;;;;18.80;8.57;;;;;;;3.37;69.27;98720.88;4931643;28;20243;-87
2022/01/25 10:54:07;;;;;;;16.85;8.60;;;;;;;3.62;68.67;98713.19;4921856;28;20266;-86
2022/01/25 10:56:39;;;;;;;22.58;8.70;;;;;;;3.53;68.39;98713.19;4932069;28;20238;-87
2022/01/25 10:59:06;;;;;;;22.05;8.95;;;;;;;3.49;69.08;98709.31;4933867;28;20122;-86
2022/01/25 11:01:40;;;;;;;36.70;10.02;;;;;;;3.42;69.39;98715.25;4929627;28;20232;-86
2022/01/25 11:04:14;;;;;;;28.02;7.60;;;;;;;3.45;69.03;98710.59;4914726;28;20676;-87
2022/01/25 11:06:41;;;;;;;26.17;8.60;;;;;;;3.51;69.03;98711.72;4929381;28;20642;-86
2022/01/25 11:09:10;;;;;;;40.45;11.68;;;;;;;3.48;69.97;98725.72;4933037;28;20266;-86
2022/01/25 11:11:45;;;;;;;49.63;12.07;;;;;;;3.43;70.73;98722.84;4915467;28;20532;-86
2022/01/25 11:16:58;;;;;;;28.58;11.27;;;;;;;3.60;69.94;98712.53;4949344;28;20188;-86
2022/01/25 11:19:26;;;;;;;33.67;10.98;;;;;;;3.46;70.25;98701.09;4913923;28;20204;-85
2022/01/25 11:21:53;;;;;;;59.00;11.65;;;;;;;3.64;70.40;98713.81;4932901;28;20348;-86
2022/01/25 11:24:20;;;;;;;24.52;10.32;;;;;;;3.67;70.77;98711.72;4934154;28;20220;-85
2022/01/25 11:26:47;;;;;;;29.58;11.48;;;;;;;3.74;70.29;98717.84;4931106;28;20178;-85
2022/01/25 11:29:13;;;;;;;36.90;11.38;;;;;;;3.69;71.17;98719.31;4937816;28;20187;-86
2022/01/25 11:31:41;;;;;;;28.58;11.05;;;;;;;3.81;71.06;98714.63;4934255;28;20299;-85
2022/01/25 11:34:09;;;;;;;21.60;10.63;;;;;;;3.86;70.54;98715.75;4934514;28;20208;-85
2022/01/25 11:37:04;;;;;;;26.45;9.45;;;;;;;3.96;69.26;98710.41;4945834;28;20102;-85
2022/01/25 11:39:31;;;;;;;20.33;9.52;;;;;;;4.12;69.14;98704.41;4928894;28;20197;-85
2022/01/25 11:42:05;;;;;;;23.42;10.02;;;;;;;4.02;69.67;98706.38;4933905;28;20187;-85
2022/01/25 11:44:31;;;;;;;22.13;10.80;;;;;;;4.22;68.78;98697.31;4933097;28;20181;-85
2022/01/25 11:47:07;;;;;;;22.17;10.85;;;;;;;3.98;69.73;98695.59;4951652;28;20290;-85
2022/01/25 11:49:32;;;;;;;26.45;11.80;;;;;;;4.13;69.20;98699.09;4918087;28;20192;-85
2022/01/25 11:52:28;;;;;;;26.00;11.57;;;;;;;4.04;69.57;98694.13;4943620;28;20153;-85
2022/01/25 11:55:24;;;;;;;24.63;10.77;;;;;;;4.21;68.42;98706.00;4914926;28;20256;-85
2022/01/25 11:58:00;;;;;;;23.95;10.30;;;;;;;4.24;68.62;98703.09;4917457;28;20807;-85
2022/01/25 12:00:35;;;;;;;26.25;10.77;;;;;;;4.11;69.34;98700.22;4930491;28;20193;-84
2022/01/25 12:03:02;;;;;;;27.80;12.35;;;;;;;4.26;69.29;98702.94;4968491;28;20173;-85
2022/01/25 12:05:27;;;;;;;19.63;10.00;;;;;;;4.40;69.24;98693.69;4946946;28;20208;-84
2022/01/25 12:08:11;;;;;;;32.40;12.50;;;;;;;4.32;68.58;98687.59;4934000;28;20165;-84
2022/01/25 12:10:40;;;;;;;23.88;11.48;;;;;;;4.47;68.05;98684.31;4942326;28;20144;-84
2022/01/25 12:13:27;;;;;;;26.95;12.20;;;;;;;4.46;68.22;98688.69;4967039;28;20188;-84
2022/01/25 12:16:27;;;;;;;24.83;12.10;;;;;;;4.34;68.72;98684.88;4950550;28;20196;-84
2022/01/25 12:18:59;;;;;;;22.25;10.90;;;;;;;4.56;68.77;98678.19;4938198;28;20212;-84
2022/01/25 12:21:54;;;;;;;23.73;12.30;;;;;;;4.47;68.29;98680.00;4936163;28;20196;-84
2022/01/25 12:24:24;;;;;;;24.23;11.73;;;;;;;4.67;68.47;98679.56;4936805;28;20726;-84
2022/01/25 12:27:09;;;;;;;21.75;11.57;;;;;;;4.53;68.62;98669.97;4949887;28;20270;-84
2022/01/25 12:29:43;;;;;;;20.08;10.70;;;;;;;4.64;67.77;98669.56;4948882;28;20220;-84
2022/01/25 12:32:27;;;;;;;21.58;10.52;;;;;;;4.69;67.37;98659.56;4941030;28;20533;-84
2022/01/25 12:34:59;;;;;;;25.13;10.63;;;;;;;4.68;67.17;98652.81;4952744;28;20192;-84
2022/01/25 12:37:43;;;;;;;27.10;10.88;;;;;;;4.56;67.13;98662.69;4968433;28;20283;-84
2022/01/25 12:40:31;;;;;;;26.23;11.35;;;;;;;4.45;67.63;98663.06;4937051;28;20720;-84
2022/01/25 12:42:58;;;;;;;25.98;11.02;;;;;;;4.60;68.05;98666.53;4933284;28;20324;-84
2022/01/25 12:45:27;;;;;;;25.83;11.45;;;;;;;4.55;68.05;98658.50;4949955;28;20177;-84
2022/01/25 12:48:00;;;;;;;30.50;12.68;;;;;;;4.40;69.31;98665.34;4942877;28;20249;-84
2022/01/25 12:50:26;;;;;;;34.90;14.70;;;;;;;4.49;69.83;98656.59;4969071;28;20576;-84
2022/01/25 12:52:54;;;;;;;27.98;13.30;;;;;;;4.62;69.79;98661.22;4934356;28;20378;-83
2022/01/25 12:55:35;;;;;;;65.75;19.48;;;;;;;4.31;69.99;98665.34;4931375;28;20413;-84
2022/01/25 12:58:03;;;;;;;58.05;19.05;;;;;;;4.22;70.74;98656.06;4954183;28;20611;-83
2022/01/25 13:00:32;;;;;;;55.83;20.13;;;;;;;4.31;70.67;98655.03;4934310;28;20217;-83
2022/01/25 13:03:14;;;;;;;40.95;15.07;;;;;;;4.24;70.47;98648.97;4952899;28;20646;-83
2022/01/25 13:05:47;;;;;;;51.03;16.83;;;;;;;4.11;70.72;98653.81;4971621;28;20203;-84
2022/01/25 13:08:22;;;;;;;60.15;17.95;;;;;;;4.14;71.21;98648.34;4936486;28;20194;-84
2022/01/25 13:10:49;;;;;;;;;;;;;;;3.89;71.61;98645.84;4937059;28;20620;-84
2022/01/25 13:13:23;;;;;;;36.50;14.43;;;;;;;4.16;71.32;98630.94;4924899;28;20513;-84
2022/01/25 13:18:14;;;;;;;42.05;15.85;;;;;;;4.32;71.35;98632.66;4967739;28;20752;-83
2022/01/25 13:20:42;;;;;;;31.83;15.27;;;;;;;4.49;71.31;98630.81;4946978;28;20340;-83
2022/01/25 13:23:08;;;;;;;37.83;16.15;;;;;;;4.43;70.58;98619.38;4968332;28;20219;-83